createdAt,value
2022-09-10T00:01:40.745Z,9.05
2022-09-10T00:04:12.312Z,9.60
2022-09-10T00:06:41.032Z,6.22
2022-09-10T00:09:10.685Z,6.40
2022-09-10T00:11:42.047Z,7.93
2022-09-10T00:14:15.592Z,6.75
2022-09-10T00:16:45.367Z,10.93
2022-09-10T00:19:14.930Z,7.75
2022-09-10T00:21:44.486Z,6.22
2022-09-10T00:24:13.829Z,6.75
2022-09-10T00:26:43.892Z,10.80
2022-09-10T00:29:15.990Z,8.10
2022-09-10T00:31:44.958Z,7.53
2022-09-10T00:34:14.697Z,6.97
2022-09-10T00:36:44.808Z,6.72
2022-09-10T00:39:16.160Z,5.75
2022-09-10T00:41:49.239Z,7.45
2022-09-10T00:44:57.081Z,7.95
2022-09-10T00:47:29.256Z,6.50
2022-09-10T00:50:04.558Z,7.95
2022-09-10T00:52:39.410Z,5.38
2022-09-10T00:55:10.543Z,6.45
2022-09-10T00:57:42.373Z,6.43
2022-09-10T01:00:14.047Z,8.80
2022-09-10T01:02:43.492Z,8.32
2022-09-10T01:05:13.010Z,5.38
2022-09-10T01:07:42.980Z,5.85
2022-09-10T01:10:15.647Z,5.65
2022-09-10T01:13:06.296Z,7.43
2022-09-10T01:15:47.077Z,6.57
2022-09-10T01:18:28.398Z,6.32
2022-09-10T01:21:07.154Z,6.22
2022-09-10T01:24:15.164Z,5.85
2022-09-10T01:27:26.152Z,5.85
2022-09-10T01:30:01.394Z,6.95
2022-09-10T01:32:40.449Z,6.82
2022-09-10T01:35:17.047Z,6.78
2022-09-10T01:37:50.489Z,6.35
2022-09-10T01:40:20.262Z,7.45
2022-09-10T01:42:50.429Z,7.25
2022-09-10T01:45:19.235Z,5.30
2022-09-10T01:48:13.653Z,8.25
2022-09-10T01:50:54.136Z,8.55
2022-09-10T01:53:44.204Z,6.70
2022-09-10T01:56:24.806Z,6.40
2022-09-10T01:59:01.195Z,6.28
2022-09-10T02:01:45.944Z,7.38
2022-09-10T02:04:16.228Z,11.13
2022-09-10T02:06:49.327Z,6.05
2022-09-10T02:09:20.254Z,6.05
2022-09-10T02:11:51.612Z,7.22
2022-09-10T02:14:36.876Z,4.95
2022-09-10T02:17:23.397Z,5.63
2022-09-10T02:19:53.906Z,5.63
2022-09-10T02:22:24.409Z,5.75
2022-09-10T02:24:53.630Z,6.60
2022-09-10T02:27:24.212Z,7.55
2022-09-10T02:29:55.464Z,8.77
2022-09-10T02:32:24.601Z,6.72
2022-09-10T02:34:53.878Z,6.35
2022-09-10T02:37:22.672Z,8.57
2022-09-10T02:39:51.543Z,7.95
2022-09-10T02:42:20.420Z,7.97
2022-09-10T02:44:49.871Z,5.47
2022-09-10T02:47:20.453Z,8.65
2022-09-10T02:49:49.239Z,7.45
2022-09-10T02:52:18.401Z,6.82
2022-09-10T02:54:47.774Z,6.22
2022-09-10T02:57:18.061Z,7.47
2022-09-10T02:59:46.758Z,5.28
2022-09-10T03:02:15.656Z,6.97
2022-09-10T03:04:45.732Z,6.45
2022-09-10T03:07:17.244Z,6.07
2022-09-10T03:09:46.701Z,6.72
2022-09-10T03:12:16.379Z,7.00
2022-09-10T03:14:45.169Z,8.38
2022-09-10T03:17:14.209Z,7.20
2022-09-10T03:19:43.727Z,6.07
2022-09-10T03:22:13.714Z,6.57
2022-09-10T03:24:43.273Z,8.07
2022-09-10T03:27:12.180Z,5.90
2022-09-10T03:29:41.319Z,6.47
2022-09-10T03:32:10.079Z,5.88
2022-09-10T03:34:41.237Z,5.90
2022-09-10T03:37:10.029Z,6.32
2022-09-10T03:39:40.132Z,6.85
2022-09-10T03:42:08.987Z,6.32
2022-09-10T03:44:37.889Z,6.40
2022-09-10T03:47:07.708Z,8.57
2022-09-10T03:49:36.394Z,8.05
2022-09-10T03:52:05.439Z,5.32
2022-09-10T03:54:37.546Z,5.72
2022-09-10T03:57:08.532Z,8.27
2022-09-10T03:59:37.893Z,5.93
2022-09-10T04:02:06.789Z,7.13
2022-09-10T04:04:37.443Z,6.07
2022-09-10T04:07:07.127Z,8.23
2022-09-10T04:09:36.222Z,23.23
2022-09-10T04:12:05.331Z,5.97
2022-09-10T04:14:37.826Z,6.05
2022-09-10T04:17:06.638Z,7.82
2022-09-10T04:19:35.516Z,6.93
2022-09-10T04:22:04.395Z,19.90
2022-09-10T04:24:34.098Z,6.95
2022-09-10T04:27:03.103Z,5.72
2022-09-10T04:29:32.401Z,8.65
2022-09-10T04:32:03.407Z,6.18
2022-09-10T04:34:34.240Z,14.23
2022-09-10T04:37:04.425Z,7.07
2022-09-10T04:39:35.198Z,5.13
2022-09-10T04:42:04.191Z,8.73
2022-09-10T04:44:34.038Z,21.88
2022-09-10T04:47:06.325Z,6.38
2022-09-10T04:49:35.514Z,8.05
2022-09-10T04:52:05.310Z,6.40
2022-09-10T04:54:34.677Z,6.10
2022-09-10T04:57:03.478Z,7.07
2022-09-10T04:59:32.677Z,7.40
2022-09-10T05:02:02.217Z,6.38
2022-09-10T05:04:33.215Z,4.90
2022-09-10T05:07:02.222Z,5.88
2022-09-10T05:09:31.521Z,5.00
2022-09-10T05:12:03.885Z,6.25
2022-09-10T05:14:33.590Z,64.63
2022-09-10T05:17:03.406Z,4.45
2022-09-10T05:19:34.204Z,5.45
2022-09-10T05:22:07.253Z,7.88
2022-09-10T05:24:36.194Z,6.72
2022-09-10T05:27:07.134Z,5.53
2022-09-10T05:29:36.104Z,5.00
2022-09-10T05:32:05.173Z,5.93
2022-09-10T05:34:36.588Z,6.28
2022-09-10T05:37:05.915Z,5.25
2022-09-10T05:39:35.610Z,4.65
2022-09-10T05:42:04.755Z,4.22
2022-09-10T05:44:33.667Z,6.20
2022-09-10T05:47:02.699Z,4.75
2022-09-10T05:49:31.593Z,4.82
2022-09-10T05:52:04.418Z,5.53
2022-09-10T05:54:33.363Z,4.68
2022-09-10T05:57:02.614Z,4.93
2022-09-10T05:59:33.247Z,3.88
2022-09-10T06:02:02.133Z,3.63
2022-09-10T06:04:32.132Z,4.75
2022-09-10T06:07:01.944Z,4.18
2022-09-10T06:09:32.092Z,4.13
2022-09-10T06:12:07.474Z,5.97
2022-09-10T06:14:37.634Z,4.90
2022-09-10T06:17:06.532Z,3.45
2022-09-10T06:19:35.332Z,3.95
2022-09-10T06:22:04.131Z,3.90
2022-09-10T06:24:39.549Z,4.20
2022-09-10T06:27:09.790Z,3.95
2022-09-10T06:29:38.604Z,4.10
2022-09-10T06:32:09.967Z,6.25
2022-09-10T06:34:41.535Z,4.70
2022-09-10T06:37:13.753Z,4.28
2022-09-10T06:39:44.253Z,4.63
2022-09-10T06:42:16.643Z,5.25
2022-09-10T06:45:00.351Z,6.35
2022-09-10T06:48:34.742Z,4.75
2022-09-10T06:50:43.561Z,6.43
2022-09-10T06:53:14.679Z,5.38
2022-09-10T06:55:46.747Z,5.32
2022-09-10T06:58:16.424Z,5.53
2022-09-10T07:00:45.759Z,4.50
2022-09-10T07:03:16.968Z,6.05
2022-09-10T07:05:46.947Z,6.13
2022-09-10T07:08:21.133Z,6.13
2022-09-10T07:11:01.443Z,5.75
2022-09-10T07:13:31.935Z,5.50
2022-09-10T07:16:03.590Z,6.25
2022-09-10T07:18:34.475Z,5.80
2022-09-10T07:21:11.871Z,7.18
2022-09-10T07:23:47.262Z,5.82
2022-09-10T07:26:20.041Z,6.97
2022-09-10T07:28:55.690Z,6.80
2022-09-10T07:31:28.151Z,5.47
2022-09-10T07:33:58.747Z,8.95
2022-09-10T07:36:27.618Z,5.57
2022-09-10T07:39:01.723Z,6.55
2022-09-10T07:41:36.218Z,6.15
2022-09-10T07:44:08.734Z,7.20
2022-09-10T07:46:41.274Z,6.72
2022-09-10T07:49:13.272Z,7.75
2022-09-10T07:51:46.673Z,6.40
2022-09-10T07:54:17.128Z,7.10
2022-09-10T07:56:53.424Z,6.80
2022-09-10T07:59:22.470Z,6.18
2022-09-10T08:02:00.359Z,7.22
2022-09-10T08:04:36.405Z,7.20
2022-09-10T08:07:08.240Z,8.50
2022-09-10T08:09:40.095Z,8.40
2022-09-10T08:12:13.362Z,8.18
2022-09-10T08:14:43.632Z,10.65
2022-09-10T08:17:12.691Z,8.50
2022-09-10T08:19:45.085Z,7.43
2022-09-10T08:22:15.142Z,8.38
2022-09-10T08:24:51.336Z,11.60
2022-09-10T08:27:21.425Z,8.77
2022-09-10T08:29:50.860Z,10.20
2022-09-10T08:32:20.796Z,8.55
2022-09-10T08:34:49.762Z,9.40
2022-09-10T08:37:19.342Z,7.82
2022-09-10T08:39:48.417Z,9.80
2022-09-10T08:42:27.035Z,8.68
2022-09-10T08:45:02.697Z,9.35
2022-09-10T08:47:40.936Z,8.25
2022-09-10T08:50:23.989Z,7.30
2022-09-10T08:52:58.103Z,6.78
2022-09-10T08:55:32.687Z,7.90
2022-09-10T08:58:15.180Z,7.88
2022-09-10T09:00:45.578Z,9.32
2022-09-10T09:03:23.965Z,9.88
2022-09-10T09:05:56.195Z,7.85
2022-09-10T09:08:35.076Z,8.05
2022-09-10T09:11:15.446Z,7.55
2022-09-10T09:13:59.446Z,9.40
2022-09-10T09:16:45.267Z,7.97
2022-09-10T09:19:22.652Z,7.63
2022-09-10T09:21:53.248Z,7.25
2022-09-10T09:24:26.811Z,7.95
2022-09-10T09:27:04.742Z,7.03
2022-09-10T09:29:43.679Z,7.05
2022-09-10T09:32:19.048Z,6.95
2022-09-10T09:34:52.143Z,6.95
2022-09-10T09:37:25.243Z,7.35
2022-09-10T09:40:06.778Z,7.65
2022-09-10T09:42:46.009Z,7.57
2022-09-10T09:45:26.476Z,7.38
2022-09-10T09:47:55.925Z,7.00
2022-09-10T09:50:26.193Z,7.35
2022-09-10T09:52:57.456Z,7.80
2022-09-10T09:55:33.016Z,10.18
2022-09-10T09:58:34.688Z,8.27
2022-09-10T10:01:17.299Z,6.93
2022-09-10T10:03:54.576Z,7.28
2022-09-10T10:06:28.351Z,8.18
2022-09-10T10:09:02.921Z,8.18
2022-09-10T10:11:45.554Z,7.38
2022-09-10T10:14:23.454Z,9.20
2022-09-10T10:17:00.029Z,10.13
2022-09-10T10:19:32.819Z,8.18
2022-09-10T10:22:22.939Z,7.63
2022-09-10T10:24:54.096Z,10.15
2022-09-10T10:27:30.086Z,8.45
2022-09-10T10:30:01.677Z,9.10
2022-09-10T10:32:42.646Z,8.13
2022-09-10T10:35:32.831Z,8.88
2022-09-10T10:38:21.354Z,8.73
2022-09-10T10:41:05.547Z,9.70
2022-09-10T10:43:46.018Z,8.38
2022-09-10T10:46:20.814Z,9.98
2022-09-10T10:49:04.034Z,8.18
2022-09-10T10:51:44.655Z,8.65
2022-09-10T10:54:28.547Z,8.02
2022-09-10T10:59:45.261Z,10.02
2022-09-10T11:02:17.204Z,7.80
2022-09-10T11:04:51.469Z,8.35
2022-09-10T11:07:27.424Z,8.00
2022-09-10T11:10:02.637Z,8.27
2022-09-10T11:12:35.546Z,7.75
2022-09-10T11:15:18.879Z,8.55
2022-09-10T11:17:52.161Z,9.18
2022-09-10T11:20:30.235Z,7.40
2022-09-10T11:23:06.417Z,9.00
2022-09-10T11:25:40.775Z,9.65
2022-09-10T11:28:14.826Z,9.30
2022-09-10T11:30:49.148Z,10.85
2022-09-10T11:33:24.510Z,9.32
2022-09-10T11:36:01.487Z,8.30
2022-09-10T11:38:39.133Z,11.25
2022-09-10T11:41:13.460Z,10.43
2022-09-10T11:43:47.029Z,10.63
2022-09-10T11:46:20.012Z,11.13
2022-09-10T11:48:54.956Z,12.43
2022-09-10T11:51:30.626Z,12.43
2022-09-10T11:53:59.585Z,11.98
2022-09-10T11:56:49.468Z,12.82
2022-09-10T11:59:39.383Z,11.95
2022-09-10T12:02:27.051Z,13.63
2022-09-10T12:05:04.343Z,15.45
2022-09-10T12:07:44.515Z,13.20
2022-09-10T12:10:20.956Z,13.73
2022-09-10T12:12:51.063Z,15.50
2022-09-10T12:15:21.594Z,15.98
2022-09-10T12:17:55.584Z,13.60
2022-09-10T12:20:29.552Z,16.25
2022-09-10T12:23:00.526Z,17.20
2022-09-10T12:25:34.871Z,15.63
2022-09-10T12:28:08.298Z,15.88
2022-09-10T12:31:02.895Z,14.45
2022-09-10T12:34:15.984Z,14.82
2022-09-10T12:37:19.747Z,14.30
2022-09-10T12:39:50.523Z,18.17
2022-09-10T12:42:33.808Z,15.88
2022-09-10T12:45:02.466Z,17.67
2022-09-10T12:47:42.474Z,19.38
2022-09-10T12:50:31.305Z,20.42
2022-09-10T12:53:38.738Z,19.20
2022-09-10T12:56:43.587Z,22.08
2022-09-10T12:59:34.964Z,21.35
2022-09-10T13:02:04.769Z,21.45
2022-09-10T13:04:36.376Z,26.52
2022-09-10T13:07:07.730Z,22.77
2022-09-10T13:09:40.113Z,21.92
2022-09-10T13:12:21.195Z,24.73
2022-09-10T13:14:53.837Z,25.92
2022-09-10T13:18:28.070Z,28.08
2022-09-10T13:20:58.768Z,25.55
2022-09-10T13:23:48.702Z,25.90
2022-09-10T13:26:50.702Z,28.45
2022-09-10T13:29:33.529Z,25.02
2022-09-10T13:32:07.214Z,23.25
2022-09-10T13:35:13.996Z,22.45
2022-09-10T13:38:00.140Z,24.33
2022-09-10T13:40:58.592Z,22.65
2022-09-10T13:43:47.721Z,21.95
2022-09-10T13:46:26.519Z,20.08
2022-09-10T13:49:06.758Z,21.13
2022-09-10T13:51:39.998Z,22.90
2022-09-10T13:54:25.473Z,24.77
2022-09-10T13:56:55.911Z,21.70
2022-09-10T13:59:30.941Z,22.77
2022-09-10T14:02:01.076Z,21.95
2022-09-10T14:04:32.099Z,20.05
2022-09-10T14:07:08.121Z,20.38
2022-09-10T14:09:38.167Z,18.98
2022-09-10T14:12:09.693Z,29.58
2022-09-10T14:14:43.169Z,21.58
2022-09-10T14:19:49.424Z,23.60
2022-09-10T14:22:22.399Z,24.38
2022-09-10T14:24:53.680Z,18.60
2022-09-10T14:27:26.078Z,21.15
2022-09-10T14:29:57.427Z,20.90
2022-09-10T14:32:30.051Z,19.23
2022-09-10T14:34:59.500Z,18.77
2022-09-10T14:37:38.137Z,17.20
2022-09-10T14:40:16.864Z,19.05
2022-09-10T14:42:46.870Z,18.15
2022-09-10T14:45:42.014Z,22.17
2022-09-10T14:48:29.705Z,17.15
2022-09-10T14:51:11.022Z,17.77
2022-09-10T14:53:40.744Z,19.17
2022-09-10T14:56:24.376Z,17.33
2022-09-10T14:59:01.353Z,18.75
2022-09-10T15:01:31.308Z,19.40
2022-09-10T15:04:01.492Z,19.63
2022-09-10T15:06:31.743Z,18.80
2022-09-10T15:09:01.693Z,21.75
2022-09-10T15:11:30.833Z,18.10
2022-09-10T15:14:00.914Z,18.70
2022-09-10T15:16:30.362Z,20.00
2022-09-10T15:19:03.692Z,17.80
2022-09-10T15:21:32.393Z,18.50
2022-09-10T15:24:01.383Z,18.30
2022-09-10T15:26:30.265Z,18.70
2022-09-10T15:28:59.377Z,17.33
2022-09-10T15:31:32.473Z,17.50
2022-09-10T15:34:03.027Z,18.40
2022-09-10T15:36:31.833Z,17.02
2022-09-10T15:39:00.755Z,20.13
2022-09-10T15:41:29.826Z,19.10
2022-09-10T15:43:59.228Z,15.43
2022-09-10T15:46:28.055Z,15.02
2022-09-10T15:48:59.574Z,16.92
2022-09-10T15:51:29.745Z,15.73
2022-09-10T15:54:02.955Z,16.50
2022-09-10T15:56:34.003Z,14.63
2022-09-10T15:59:02.948Z,12.75
2022-09-10T16:01:31.746Z,13.35
2022-09-10T16:04:03.153Z,15.05
2022-09-10T16:06:36.873Z,12.25
2022-09-10T16:09:09.174Z,14.80
2022-09-10T16:11:41.142Z,18.30
2022-09-10T16:14:13.316Z,15.35
2022-09-10T16:16:42.599Z,14.85
2022-09-10T16:19:13.126Z,14.15
2022-09-10T16:21:43.527Z,14.07
2022-09-10T16:24:12.224Z,15.18
2022-09-10T16:26:43.666Z,14.07
2022-09-10T16:29:15.753Z,14.52
2022-09-10T16:31:46.110Z,15.93
2022-09-10T16:34:18.496Z,16.65
2022-09-10T16:36:51.053Z,16.38
2022-09-10T16:39:20.668Z,13.18
2022-09-10T16:41:50.860Z,15.93
2022-09-10T16:44:20.422Z,14.73
2022-09-10T16:46:49.647Z,15.43
2022-09-10T16:49:19.839Z,18.13
2022-09-10T16:51:50.224Z,16.75
2022-09-10T16:54:21.391Z,14.73
2022-09-10T16:56:51.386Z,13.63
2022-09-10T16:59:22.266Z,15.57
2022-09-10T17:01:52.740Z,18.42
2022-09-10T17:04:28.468Z,15.75
2022-09-10T17:06:59.411Z,16.60
2022-09-10T17:09:28.365Z,17.02
2022-09-10T17:11:57.118Z,18.33
2022-09-10T17:14:25.896Z,18.42
2022-09-10T17:16:54.806Z,20.75
2022-09-10T17:19:27.616Z,18.58
2022-09-10T17:21:58.165Z,20.52
2022-09-10T17:24:27.970Z,17.35
2022-09-10T17:26:56.955Z,18.23
2022-09-10T17:29:27.066Z,17.27
2022-09-10T17:31:57.524Z,19.38
2022-09-10T17:34:28.413Z,17.63
2022-09-10T17:36:58.642Z,18.25
2022-09-10T17:39:29.396Z,21.90
2022-09-10T17:41:59.029Z,22.30
2022-09-10T17:44:28.167Z,27.70
2022-09-10T17:46:57.050Z,23.02
2022-09-10T17:49:26.036Z,19.38
2022-09-10T17:51:54.832Z,19.17
2022-09-10T17:54:25.077Z,22.05
2022-09-10T17:56:54.420Z,20.35
2022-09-10T17:59:25.173Z,19.65
2022-09-10T18:01:54.131Z,19.73
2022-09-10T18:04:23.502Z,22.00
2022-09-10T18:06:52.718Z,19.52
2022-09-10T18:09:23.687Z,23.45
2022-09-10T18:11:56.442Z,19.45
2022-09-10T18:14:26.332Z,21.95
2022-09-10T18:16:55.990Z,24.63
2022-09-10T18:19:25.489Z,22.00
2022-09-10T18:21:54.485Z,22.02
2022-09-10T18:24:25.669Z,23.55
2022-09-10T18:26:56.662Z,19.65
2022-09-10T18:29:27.107Z,18.50
2022-09-10T18:31:57.828Z,23.55
2022-09-10T18:34:28.212Z,21.33
2022-09-10T18:36:59.914Z,18.70
2022-09-10T18:39:30.809Z,18.52
2022-09-10T18:42:02.597Z,18.52
2022-09-10T18:44:34.586Z,17.63
2022-09-10T18:47:11.152Z,15.85
2022-09-10T18:49:47.402Z,17.92
2022-09-10T18:52:17.134Z,16.10
2022-09-10T18:54:46.841Z,24.90
2022-09-10T18:57:17.270Z,21.50
2022-09-10T18:59:46.373Z,23.35
2022-09-10T19:02:15.923Z,17.65
2022-09-10T19:05:07.472Z,18.85
2022-09-10T19:07:34.164Z,15.80
2022-09-10T19:10:05.080Z,17.33
2022-09-10T19:12:35.419Z,16.98
2022-09-10T19:15:04.321Z,20.05
2022-09-10T19:17:33.286Z,17.23
2022-09-10T19:20:02.554Z,20.63
2022-09-10T19:22:31.673Z,14.32
2022-09-10T19:25:01.559Z,19.27
2022-09-10T19:27:32.368Z,17.30
2022-09-10T19:30:02.649Z,18.95
2022-09-10T19:32:32.038Z,20.25
2022-09-10T19:35:01.408Z,14.73
2022-09-10T19:37:31.664Z,14.77
2022-09-10T19:40:00.592Z,17.48
2022-09-10T19:42:29.937Z,14.43
2022-09-10T19:44:59.048Z,19.42
2022-09-10T19:47:29.446Z,16.15
2022-09-10T19:49:59.332Z,15.25
2022-09-10T19:52:28.071Z,14.30
2022-09-10T19:54:57.059Z,13.88
2022-09-10T19:57:26.518Z,13.50
2022-09-10T19:59:56.892Z,12.68
2022-09-10T20:02:25.829Z,14.50
2022-09-10T20:04:56.486Z,12.57
2022-09-10T20:07:25.805Z,14.05
2022-09-10T20:09:55.107Z,14.98
2022-09-10T20:12:24.511Z,13.18
2022-09-10T20:14:53.373Z,14.52
2022-09-10T20:17:22.289Z,13.68
2022-09-10T20:19:51.606Z,13.35
2022-09-10T20:22:21.883Z,18.17
2022-09-10T20:24:50.667Z,16.15
2022-09-10T20:27:19.493Z,15.80
2022-09-10T20:29:48.246Z,10.75
2022-09-10T20:32:17.124Z,10.68
2022-09-10T20:34:45.958Z,13.98
2022-09-10T20:37:14.750Z,12.63
2022-09-10T20:39:48.555Z,15.25
2022-09-10T20:42:17.917Z,21.63
2022-09-10T20:44:47.120Z,26.48
2022-09-10T20:47:15.908Z,14.02
2022-09-10T20:49:45.050Z,30.08
2022-09-10T20:52:14.031Z,15.55
2022-09-10T20:54:44.465Z,12.93
2022-09-10T20:57:13.251Z,16.42
2022-09-10T20:59:42.341Z,13.95
2022-09-10T21:02:13.141Z,13.90
2022-09-10T21:04:42.417Z,11.50
2022-09-10T21:07:11.229Z,13.68
2022-09-10T21:09:40.083Z,13.27
2022-09-10T21:12:11.457Z,28.67
2022-09-10T21:14:40.201Z,15.52
2022-09-10T21:17:09.958Z,16.70
2022-09-10T21:19:38.755Z,15.20
2022-09-10T21:22:07.784Z,11.10
2022-09-10T21:24:36.467Z,12.32
2022-09-10T21:27:05.508Z,13.63
2022-09-10T21:29:36.255Z,11.77
2022-09-10T21:32:04.994Z,12.82
2022-09-10T21:34:34.087Z,13.43
2022-09-10T21:37:03.232Z,14.43
2022-09-10T21:39:32.040Z,14.45
2022-09-10T21:42:01.122Z,10.35
2022-09-10T21:44:31.313Z,11.32
2022-09-10T21:47:01.261Z,16.80
2022-09-10T21:49:30.131Z,31.35
2022-09-10T21:51:59.428Z,12.98
2022-09-10T21:54:28.303Z,14.40
2022-09-10T21:56:57.190Z,22.00
2022-09-10T21:59:26.854Z,11.48
2022-09-10T22:01:55.967Z,10.70
2022-09-10T22:04:26.100Z,10.43
2022-09-10T22:06:55.103Z,15.20
2022-09-10T22:09:24.429Z,13.00
2022-09-10T22:11:54.449Z,11.68
2022-09-10T22:14:24.797Z,11.90
2022-09-10T22:16:55.122Z,10.38
2022-09-10T22:19:27.378Z,12.57
2022-09-10T22:21:56.935Z,13.77
2022-09-10T22:24:26.296Z,13.00
2022-09-10T22:26:55.252Z,13.63
2022-09-10T22:29:25.271Z,11.27
2022-09-10T22:31:54.029Z,11.02
2022-09-10T22:34:23.167Z,14.90
2022-09-10T22:36:53.281Z,16.83
2022-09-10T22:39:23.314Z,10.98
2022-09-10T22:41:52.760Z,12.02
2022-09-10T22:44:23.301Z,14.07
2022-09-10T22:46:52.056Z,17.80
2022-09-10T22:49:21.979Z,17.02
2022-09-10T22:51:50.871Z,14.13
2022-09-10T22:54:24.206Z,11.45
2022-09-10T22:56:52.939Z,14.55
2022-09-10T22:59:21.589Z,14.75
2022-09-10T23:01:50.578Z,10.93
2022-09-10T23:04:19.349Z,13.38
2022-09-10T23:06:48.194Z,11.05
2022-09-10T23:09:18.345Z,10.68
2022-09-10T23:11:48.555Z,15.02
2022-09-10T23:14:20.042Z,10.10
2022-09-10T23:16:51.962Z,12.52
2022-09-10T23:19:23.255Z,13.48
2022-09-10T23:21:54.980Z,11.27
2022-09-10T23:24:26.468Z,11.65
2022-09-10T23:26:58.484Z,14.30
2022-09-10T23:29:28.267Z,12.05
2022-09-10T23:31:58.443Z,11.85
2022-09-10T23:34:27.964Z,13.93
2022-09-10T23:36:57.283Z,14.18
2022-09-10T23:39:27.259Z,9.68
2022-09-10T23:41:59.014Z,11.32
2022-09-10T23:44:28.705Z,11.70
2022-09-10T23:46:58.279Z,13.02
2022-09-10T23:49:27.736Z,12.43
2022-09-10T23:51:56.702Z,9.68
2022-09-10T23:54:25.526Z,11.57
2022-09-10T23:56:58.206Z,12.63
2022-09-10T23:59:27.120Z,10.80
